createdAt,value
2019-04-27T00:01:27.467Z,100758.74
2019-04-27T00:04:25.387Z,100758.10
2019-04-27T00:07:00.039Z,100761.09
2019-04-27T05:32:33.886Z,100613.71
2019-04-27T05:35:04.369Z,100616.20
2019-04-27T05:37:34.887Z,100609.02
2019-04-27T05:40:06.110Z,100607.34
2019-04-27T05:42:36.591Z,100602.66
2019-04-27T05:45:30.871Z,100600.11
2019-04-27T05:48:09.722Z,100599.26
2019-04-27T05:50:45.658Z,100600.99
2019-04-27T05:53:12.540Z,100608.36
2019-04-27T05:55:43.057Z,100594.47
2019-04-27T05:58:13.593Z,100588.99
2019-04-27T06:00:44.106Z,100593.64
2019-04-27T06:03:14.607Z,100591.14
2019-04-27T06:05:45.152Z,100588.56
2019-04-27T06:08:15.633Z,100588.64
2019-04-27T06:10:46.201Z,100586.34
2019-04-27T06:13:16.733Z,100588.89
2019-04-27T06:15:47.233Z,100585.84
2019-04-27T06:18:19.028Z,100582.84
2019-04-27T06:20:55.041Z,100582.44
2019-04-27T06:23:22.355Z,100579.16
2019-04-27T06:25:52.873Z,100581.45
2019-04-27T06:28:23.352Z,100584.23
2019-04-27T06:30:53.839Z,100583.33
2019-04-27T06:33:32.038Z,100583.33
2019-04-27T06:35:56.691Z,100584.68
2019-04-27T06:38:27.250Z,100577.66
2019-04-27T06:40:59.353Z,100575.41
2019-04-27T06:43:30.387Z,100573.31
2019-04-27T06:46:02.238Z,100575.95
2019-04-27T06:48:32.683Z,100573.63
2019-04-27T06:51:07.111Z,100580.58
2019-04-27T06:53:39.314Z,100571.99
2019-04-27T06:56:11.128Z,100565.86
2019-04-27T06:58:41.692Z,100572.52
2019-04-27T07:01:12.498Z,100572.45
2019-04-27T07:03:43.004Z,100573.19
2019-04-27T07:06:13.515Z,100573.94
2019-04-27T07:08:44.051Z,100571.71
2019-04-27T07:11:14.592Z,100572.02
2019-04-27T07:13:45.467Z,100571.92
2019-04-27T07:16:15.956Z,100568.95
2019-04-27T07:18:46.466Z,100565.98
2019-04-27T07:21:21.605Z,100567.03
2019-04-27T07:23:59.353Z,100559.70
2019-04-27T07:26:30.852Z,100559.70
2019-04-27T07:29:01.282Z,100559.93
2019-04-27T07:31:32.044Z,100556.61
2019-04-27T07:34:02.650Z,100560.64
2019-04-27T07:36:33.254Z,100558.36
2019-04-27T07:39:05.001Z,100558.07
2019-04-27T07:41:35.528Z,100562.09
2019-04-27T07:44:11.952Z,100559.56
2019-04-27T07:46:42.493Z,100566.19
2019-04-27T07:49:13.018Z,100560.89
2019-04-27T07:51:43.515Z,100564.53
2019-04-27T07:54:14.049Z,100562.06
2019-04-27T07:56:44.665Z,100556.80
2019-04-27T07:59:15.203Z,100553.78
2019-04-27T08:01:45.698Z,100555.47
2019-04-27T08:04:16.334Z,100551.30
2019-04-27T08:06:46.828Z,100557.02
2019-04-27T08:09:19.024Z,100555.69
2019-04-27T08:11:49.843Z,100551.73
2019-04-27T08:14:20.424Z,100552.95
2019-04-27T08:16:51.038Z,100559.95
2019-04-27T08:19:21.676Z,100552.64
2019-04-27T08:21:52.253Z,100551.10
2019-04-27T08:24:22.792Z,100545.16
2019-04-27T08:27:01.060Z,100549.16
2019-04-27T08:29:58.901Z,100547.30
2019-04-27T08:32:34.852Z,100548.16
2019-04-27T08:35:05.744Z,100544.25
2019-04-27T08:37:36.310Z,100541.30
2019-04-27T08:40:09.325Z,100543.16
2019-04-27T08:42:40.862Z,100541.34
2019-04-27T08:45:11.476Z,100543.70
2019-04-27T08:47:42.042Z,100540.91
2019-04-27T08:50:12.801Z,100542.45
2019-04-27T08:52:43.366Z,100538.27
2019-04-27T08:55:14.076Z,100533.86
2019-04-27T08:57:44.692Z,100541.84
2019-04-27T09:00:16.772Z,100528.39
2019-04-27T09:02:48.064Z,100534.86
2019-04-27T09:05:25.935Z,100534.88
2019-04-27T09:08:26.196Z,100537.21
2019-04-27T09:11:06.735Z,100528.94
2019-04-27T09:13:48.765Z,100533.74
2019-04-27T09:16:58.015Z,100531.25
2019-04-27T09:19:29.671Z,100528.41
2019-04-27T09:22:12.389Z,100532.89
2019-04-27T09:24:34.532Z,100532.56
2019-04-27T09:27:05.794Z,100525.22
2019-04-27T09:29:36.478Z,100515.05
2019-04-27T09:32:08.874Z,100511.56
2019-04-27T09:34:40.220Z,100516.56
2019-04-27T09:37:10.754Z,100516.86
2019-04-27T09:39:41.324Z,100507.70
2019-04-27T09:42:16.770Z,100512.80
2019-04-27T09:44:47.667Z,100503.84
2019-04-27T09:47:18.382Z,100500.20
2019-04-27T09:49:49.091Z,100501.48
2019-04-27T09:52:26.318Z,100487.94
2019-04-27T09:54:51.910Z,100493.68
2019-04-27T09:57:22.483Z,100493.68
2019-04-27T09:59:53.165Z,100488.95
2019-04-27T10:02:23.723Z,100487.26
2019-04-27T10:04:54.331Z,100487.29
2019-04-27T10:07:26.704Z,100478.93
2019-04-27T10:09:57.098Z,100478.68
2019-04-27T10:12:27.686Z,100484.40
2019-04-27T10:14:58.214Z,100485.88
2019-04-27T10:17:28.841Z,100487.36
2019-04-27T10:19:59.374Z,100481.80
2019-04-27T10:22:40.457Z,100481.06
2019-04-27T10:25:02.102Z,100484.79
2019-04-27T10:28:00.537Z,100472.63
2019-04-27T10:30:32.459Z,100474.07
2019-04-27T10:33:07.658Z,100480.15
2019-04-27T10:36:35.667Z,100475.34
2019-04-27T10:39:08.688Z,100458.14
2019-04-27T10:41:39.216Z,100462.86
2019-04-27T10:44:10.559Z,100455.15
2019-04-27T10:46:41.065Z,100457.47
2019-04-27T10:49:11.604Z,100455.75
2019-04-27T10:51:42.114Z,100452.11
2019-04-27T10:54:12.704Z,100451.99
2019-04-27T10:56:43.209Z,100444.31
2019-04-27T10:59:13.980Z,100445.66
2019-04-27T11:01:45.964Z,100453.77
2019-04-27T11:04:38.322Z,100444.66
2019-04-27T11:07:11.102Z,100444.34
2019-04-27T11:09:41.806Z,100444.05
2019-04-27T11:12:12.413Z,100442.34
2019-04-27T11:14:42.940Z,100448.06
2019-04-27T11:17:13.487Z,100440.44
2019-04-27T11:19:45.935Z,100445.86
2019-04-27T11:22:16.343Z,100447.03
2019-04-27T11:24:47.932Z,100447.69
2019-04-27T11:27:18.704Z,100441.47
2019-04-27T11:29:49.537Z,100434.81
2019-04-27T11:32:20.151Z,100438.16
2019-04-27T11:35:18.671Z,100436.80
2019-04-27T11:37:50.134Z,100433.80
2019-04-27T11:40:22.259Z,100434.00
2019-04-27T11:42:52.829Z,100437.34
2019-04-27T11:45:23.601Z,100431.86
2019-04-27T11:47:55.335Z,100425.97
2019-04-27T11:50:27.490Z,100427.27
2019-04-27T11:52:58.114Z,100420.62
2019-04-27T11:55:28.732Z,100414.70
2019-04-27T11:57:59.801Z,100420.03
2019-04-27T12:00:30.555Z,100426.28
2019-04-27T12:03:01.124Z,100418.78
2019-04-27T12:05:31.852Z,100410.67
2019-04-27T12:08:02.403Z,100416.83
2019-04-27T12:10:36.323Z,100422.46
2019-04-27T12:13:07.555Z,100419.13
2019-04-27T12:15:38.361Z,100420.41
2019-04-27T12:18:09.236Z,100422.73
2019-04-27T12:20:39.935Z,100409.58
2019-04-27T12:23:10.435Z,100410.63
2019-04-27T12:25:40.925Z,100416.94
2019-04-27T12:28:17.995Z,100409.59
2019-04-27T12:30:57.472Z,100402.25
2019-04-27T12:33:28.081Z,100405.28
2019-04-27T12:35:58.671Z,100409.27
2019-04-27T12:38:29.306Z,100409.59
2019-04-27T12:41:00.055Z,100397.58
2019-04-27T12:43:40.252Z,100403.66
2019-04-27T12:46:11.776Z,100400.03
2019-04-27T12:48:42.312Z,100394.55
2019-04-27T12:51:12.941Z,100400.55
2019-04-27T12:54:05.983Z,100395.12
2019-04-27T12:56:55.821Z,100391.86
2019-04-27T12:59:44.371Z,100387.64
2019-04-27T13:02:16.309Z,100382.83
2019-04-27T13:04:46.843Z,100393.55
2019-04-27T13:07:17.357Z,100387.73
2019-04-27T13:09:47.868Z,100383.86
2019-04-27T13:12:18.380Z,100384.23
2019-04-27T13:14:49.022Z,100373.30
2019-04-27T13:17:19.519Z,100376.75
2019-04-27T13:19:50.108Z,100383.22
2019-04-27T13:22:20.602Z,100373.44
2019-04-27T13:24:51.207Z,100366.05
2019-04-27T13:27:21.668Z,100368.80
2019-04-27T13:29:52.213Z,100372.95
2019-04-27T13:32:22.771Z,100366.45
2019-04-27T13:34:53.360Z,100361.95
2019-04-27T13:37:52.906Z,100365.41
2019-04-27T13:40:26.062Z,100366.70
2019-04-27T13:43:05.040Z,100365.55
2019-04-27T13:45:54.444Z,100362.81
2019-04-27T13:48:40.615Z,100409.30
2019-04-27T13:51:14.109Z,100425.77
2019-04-27T13:54:26.075Z,100421.38
2019-04-27T13:56:51.343Z,100412.20
2019-04-27T13:59:21.950Z,100417.06
2019-04-27T14:01:52.511Z,100441.23
2019-04-27T14:04:24.150Z,100446.90
2019-04-27T14:06:54.811Z,100459.42
2019-04-27T14:09:25.450Z,100460.42
2019-04-27T14:12:01.780Z,100466.73
2019-04-27T14:14:32.316Z,100450.89
2019-04-27T14:17:02.942Z,100449.41
2019-04-27T14:19:33.448Z,100459.36
2019-04-27T14:22:04.007Z,100467.99
2019-04-27T14:24:41.564Z,100459.34
2019-04-27T14:27:13.592Z,100449.50
2019-04-27T14:29:44.154Z,100443.70
2019-04-27T14:32:14.692Z,100448.33
2019-04-27T14:34:45.302Z,100446.16
2019-04-27T14:37:15.842Z,100442.03
2019-04-27T14:39:46.536Z,100449.35
2019-04-27T14:42:18.998Z,100456.05
2019-04-27T14:44:49.537Z,100448.73
2019-04-27T14:47:20.352Z,100455.05
2019-04-27T14:49:50.878Z,100460.21
2019-04-27T14:52:21.433Z,100464.34
2019-04-27T14:54:51.992Z,100460.52
2019-04-27T14:57:22.616Z,100469.66
2019-04-27T14:59:53.126Z,100466.67
2019-04-27T15:02:23.790Z,100467.78
2019-04-27T15:04:54.349Z,100474.22
2019-04-27T15:07:25.168Z,100475.88
2019-04-27T15:09:57.515Z,100482.19
2019-04-27T15:12:30.624Z,100479.80
2019-04-27T15:15:01.464Z,100484.32
2019-04-27T15:17:32.293Z,100481.36
2019-04-27T15:20:07.065Z,100478.42
2019-04-27T15:22:40.301Z,100484.45
2019-04-27T15:25:15.175Z,100485.43
2019-04-27T15:27:50.518Z,100479.81
2019-04-27T15:30:35.150Z,100484.52
2019-04-27T15:33:35.419Z,100475.73
2019-04-27T15:36:10.365Z,100474.74
2019-04-27T15:38:47.758Z,100480.77
2019-04-27T15:41:32.069Z,100477.48
2019-04-27T15:44:05.898Z,100480.16
2019-04-27T15:46:35.541Z,100481.73
2019-04-27T15:49:09.717Z,100484.73
2019-04-27T15:51:38.534Z,100490.37
2019-04-27T15:54:09.210Z,100487.44
2019-04-27T15:56:39.806Z,100487.08
2019-04-27T15:59:10.348Z,100493.59
2019-04-27T16:01:45.428Z,100500.20
2019-04-27T16:04:15.948Z,100499.36
2019-04-27T16:06:47.433Z,100499.56
2019-04-27T16:09:24.367Z,100508.80
2019-04-27T16:11:58.703Z,100505.80
2019-04-27T16:14:24.331Z,100506.38
2019-04-27T16:16:54.924Z,100508.42
2019-04-27T16:19:25.490Z,100511.02
2019-04-27T16:21:55.975Z,100512.25
2019-04-27T16:24:26.455Z,100524.55
2019-04-27T16:26:58.917Z,100521.20
2019-04-27T16:29:31.558Z,100519.90
2019-04-27T16:32:02.853Z,100520.41
2019-04-27T16:34:37.852Z,100518.75
2019-04-27T16:37:09.559Z,100527.20
2019-04-27T16:39:40.872Z,100528.78
2019-04-27T16:42:14.349Z,100533.34
2019-04-27T16:44:44.259Z,100538.29
2019-04-27T16:47:18.778Z,100541.34
2019-04-27T16:49:48.388Z,100542.12
2019-04-27T16:52:19.797Z,100536.84
2019-04-27T16:54:57.178Z,100537.11
2019-04-27T16:57:25.053Z,100539.95
2019-04-27T16:59:59.228Z,100539.13
2019-04-27T17:02:27.812Z,100539.34
2019-04-27T17:04:58.755Z,100548.66
2019-04-27T17:07:37.376Z,100546.88
2019-04-27T17:10:01.847Z,100549.92
2019-04-27T17:12:34.848Z,100549.77
2019-04-27T17:15:23.570Z,100551.25
2019-04-27T17:18:30.860Z,100545.41
2019-04-27T17:21:09.964Z,100549.27
2019-04-27T17:23:33.021Z,100543.05
2019-04-27T17:26:13.941Z,100542.16
2019-04-27T17:28:40.964Z,100542.03
2019-04-27T17:31:12.840Z,100545.64
2019-04-27T17:33:49.960Z,100544.61
2019-04-27T17:36:20.510Z,100549.54
2019-04-27T17:38:51.250Z,100551.16
2019-04-27T17:41:21.880Z,100553.10
2019-04-27T17:43:52.385Z,100553.80
2019-04-27T17:46:23.015Z,100561.06
2019-04-27T17:48:53.659Z,100563.67
2019-04-27T17:51:24.174Z,100559.65
2019-04-27T17:53:54.737Z,100570.52
2019-04-27T17:56:34.032Z,100571.70
2019-04-27T17:58:58.597Z,100573.94
2019-04-27T18:01:31.847Z,100571.72
2019-04-27T18:04:03.015Z,100575.89
2019-04-27T18:06:33.975Z,100575.78
2019-04-27T18:09:08.277Z,100575.69
2019-04-27T18:11:38.890Z,100581.50
2019-04-27T18:14:13.017Z,100581.85
2019-04-27T18:16:41.671Z,100575.69
2019-04-27T18:19:29.892Z,100576.67
2019-04-27T18:22:04.840Z,100578.06
2019-04-27T18:24:41.262Z,100585.59
2019-04-27T18:27:24.988Z,100585.94
2019-04-27T18:30:10.364Z,100594.38
2019-04-27T18:32:40.814Z,100596.34
2019-04-27T18:35:12.013Z,100596.05
2019-04-27T18:37:42.594Z,100601.20
2019-04-27T18:40:13.585Z,100602.92
2019-04-27T18:42:44.194Z,100614.02
2019-04-27T18:45:15.335Z,100615.55
2019-04-27T18:47:48.627Z,100618.14
2019-04-27T18:50:34.186Z,100618.91
2019-04-27T18:53:16.334Z,100622.80
2019-04-27T18:55:50.063Z,100624.33
2019-04-27T18:58:18.849Z,100626.05
2019-04-27T19:00:50.021Z,100633.72
2019-04-27T19:03:20.558Z,100639.22
2019-04-27T19:05:51.161Z,100641.36
2019-04-27T19:08:21.739Z,100646.86
2019-04-27T19:10:52.354Z,100650.70
2019-04-27T19:13:23.005Z,100650.77
2019-04-27T19:15:53.557Z,100655.19
2019-04-27T19:18:24.115Z,100664.27
2019-04-27T19:20:54.779Z,100662.27
2019-04-27T19:23:25.643Z,100657.41
2019-04-27T19:26:18.581Z,100660.02
2019-04-27T19:29:10.098Z,100662.05
2019-04-27T19:31:45.604Z,100674.48
2019-04-27T19:34:17.698Z,100681.63
2019-04-27T19:36:48.938Z,100685.83
2019-04-27T19:39:19.801Z,100685.30
2019-04-27T19:41:59.515Z,100683.20
2019-04-27T19:44:22.805Z,100687.20
2019-04-27T19:46:53.311Z,100683.66
2019-04-27T19:49:23.945Z,100685.66
2019-04-27T19:51:54.491Z,100686.86
2019-04-27T19:54:25.061Z,100691.67
2019-04-27T19:56:55.599Z,100692.52
2019-04-27T19:59:31.321Z,100696.23
2019-04-27T20:02:04.806Z,100695.54
2019-04-27T20:04:37.595Z,100702.27
2019-04-27T20:07:10.397Z,100702.61
2019-04-27T20:10:08.842Z,100701.03
2019-04-27T20:12:41.054Z,100698.14
2019-04-27T20:15:12.076Z,100697.83
2019-04-27T20:17:42.634Z,100696.20
2019-04-27T20:20:13.411Z,100698.83
2019-04-27T20:22:43.888Z,100706.38
2019-04-27T20:25:14.566Z,100706.34
2019-04-27T20:27:49.279Z,100712.91
2019-04-27T20:30:17.384Z,100708.40
2019-04-27T20:32:47.957Z,100711.48
2019-04-27T20:35:18.491Z,100717.20
2019-04-27T20:37:49.042Z,100719.32
2019-04-27T20:40:21.628Z,100714.80
2019-04-27T20:42:51.865Z,100719.84
2019-04-27T20:45:22.553Z,100720.64
2019-04-27T20:47:53.061Z,100721.96
2019-04-27T20:50:23.565Z,100725.39
2019-04-27T20:52:56.313Z,100718.54
2019-04-27T20:55:26.864Z,100724.80
2019-04-27T20:58:02.019Z,100723.57
2019-04-27T21:00:29.679Z,100730.41
2019-04-27T21:03:08.034Z,100733.27
2019-04-27T21:05:57.429Z,100735.93
2019-04-27T21:08:28.266Z,100740.55
2019-04-27T21:10:58.789Z,100733.78
2019-04-27T21:13:29.289Z,100736.42
2019-04-27T21:15:59.865Z,100743.50
2019-04-27T21:18:31.822Z,100743.39
2019-04-27T21:21:02.416Z,100739.95
2019-04-27T21:23:32.965Z,100741.05
2019-04-27T21:26:03.470Z,100743.68
2019-04-27T21:28:34.187Z,100747.05
2019-04-27T21:31:04.747Z,100741.67
2019-04-27T21:33:35.240Z,100741.89
2019-04-27T21:36:05.722Z,100749.08
2019-04-27T21:38:36.219Z,100750.16
2019-04-27T21:41:06.674Z,100757.78
2019-04-27T21:43:37.186Z,100758.98
2019-04-27T21:46:07.701Z,100758.05
2019-04-27T21:48:38.354Z,100756.73
2019-04-27T21:51:08.845Z,100761.51
2019-04-27T21:53:51.272Z,100763.23
2019-04-27T21:56:21.809Z,100763.39
2019-04-27T21:58:52.329Z,100752.97
2019-04-27T22:01:31.587Z,100758.36
2019-04-27T22:04:01.863Z,100762.30
2019-04-27T22:06:32.322Z,100774.51
2019-04-27T22:09:02.855Z,100773.27
2019-04-27T22:11:33.319Z,100776.13
2019-04-27T22:14:05.958Z,100771.25
2019-04-27T22:16:36.094Z,100778.64
2019-04-27T22:19:06.972Z,100779.00
2019-04-27T22:21:37.453Z,100778.06
2019-04-27T22:24:31.322Z,100778.17
2019-04-27T22:27:01.832Z,100777.61
2019-04-27T22:29:32.354Z,100780.83
2019-04-27T22:32:02.964Z,100777.73
2019-04-27T22:34:33.351Z,100786.97
2019-04-27T22:37:04.039Z,100782.77
2019-04-27T22:39:41.291Z,100781.56
2019-04-27T22:42:31.331Z,100786.95
2019-04-27T22:45:36.109Z,100785.87
2019-04-27T22:48:06.713Z,100785.76
2019-04-27T22:50:37.173Z,100784.55
2019-04-27T22:53:08.516Z,100794.37
2019-04-27T22:55:58.081Z,100789.55
2019-04-27T22:58:28.627Z,100790.52
2019-04-27T23:01:17.956Z,100791.12
2019-04-27T23:03:51.689Z,100788.96
2019-04-27T23:06:22.363Z,100789.94
2019-04-27T23:08:52.867Z,100790.75
2019-04-27T23:11:23.420Z,100795.00
2019-04-27T23:13:53.972Z,100792.98
2019-04-27T23:16:26.070Z,100803.02
2019-04-27T23:18:56.566Z,100808.17
2019-04-27T23:21:27.125Z,100802.90
2019-04-27T23:23:57.552Z,100804.80
2019-04-27T23:26:28.092Z,100798.72
2019-04-27T23:29:12.341Z,100798.84
2019-04-27T23:31:49.695Z,100807.47
2019-04-27T23:34:21.660Z,100809.89
2019-04-27T23:36:52.250Z,100806.63
2019-04-27T23:39:22.709Z,100806.91
2019-04-27T23:41:53.192Z,100799.69
2019-04-27T23:44:24.054Z,100801.94
2019-04-27T23:46:54.543Z,100801.86
2019-04-27T23:49:25.031Z,100800.89
2019-04-27T23:52:04.318Z,100805.20
2019-04-27T23:54:34.825Z,100801.62
2019-04-27T23:57:05.346Z,100808.69
2019-04-27T23:59:35.867Z,100809.31
